Time;durP1;ratioP1;P1;durP2;ratioP2;P2;SDS_P1;SDS_P2;PMS_P1;PMS_P2;Temp;Humidity;BMP_temperature;BMP_pressure;BME280_temperature;BME280_humidity;BME280_pressure;Samples;Min_cycle;Max_cycle;Signal;HPM_P1;HPM_P2
2023/03/22 00:00:49;;;;;;;9.88;4.65;;;8.30;84.80;;;;;;5012240;28;20033;-78
2023/03/22 00:03:15;;;;;;;14.82;4.85;;;8.30;84.70;;;;;;5007051;28;20045;-79
2023/03/22 00:05:40;;;;;;;10.20;4.32;;;8.30;84.60;;;;;;5004877;28;20117;-79
2023/03/22 00:08:07;;;;;;;14.30;4.18;;;8.30;84.50;;;;;;4987361;28;25465;-78
2023/03/22 00:10:33;;;;;;;13.45;4.13;;;8.30;84.40;;;;;;5010548;28;20072;-78
2023/03/22 00:12:59;;;;;;;25.65;4.47;;;8.20;85.10;;;;;;5026553;28;20044;-79
2023/03/22 00:15:25;;;;;;;11.90;4.18;;;8.20;84.40;;;;;;4993172;28;20041;-79
2023/03/22 00:17:50;;;;;;;36.53;6.93;;;8.20;84.50;;;;;;5001444;28;20456;-77
2023/03/22 00:20:18;;;;;;;35.22;6.78;;;8.20;84.50;;;;;;5028815;28;20047;-78
2023/03/22 00:22:45;;;;;;;9.02;4.05;;;8.10;84.50;;;;;;5004900;28;20060;-79
2023/03/22 00:25:10;;;;;;;16.52;3.67;;;8.10;84.60;;;;;;5027534;28;20041;-80
2023/03/22 00:27:36;;;;;;;10.27;3.88;;;8.10;84.60;;;;;;5008874;28;20163;-79
2023/03/22 00:30:02;;;;;;;12.63;4.00;;;8.10;84.70;;;;;;5030261;28;20045;-79
2023/03/22 00:32:28;;;;;;;18.33;4.57;;;8.10;84.60;;;;;;4994762;28;20041;-79
2023/03/22 00:34:53;;;;;;;14.07;3.50;;;8.10;84.60;;;;;;5029589;28;20629;-78
2023/03/22 00:37:19;;;;;;;9.65;4.15;;;8.00;84.50;;;;;;5027322;28;20045;-78
2023/03/22 00:39:44;;;;;;;6.70;3.55;;;8.00;84.50;;;;;;5009100;28;20037;-79
2023/03/22 00:42:10;;;;;;;8.88;4.07;;;8.00;84.50;;;;;;5011049;28;20037;-80
2023/03/22 00:44:35;;;;;;;5.68;3.00;;;8.00;84.50;;;;;;5009972;28;21472;-78
2023/03/22 00:47:01;;;;;;;5.00;3.10;;;8.00;84.50;;;;;;5027336;28;20457;-79
2023/03/22 00:49:28;;;;;;;4.55;3.15;;;7.90;84.50;;;;;;5010849;28;20524;-79
2023/03/22 00:51:53;;;;;;;10.43;3.78;;;7.90;84.50;;;;;;5022974;28;20443;-78
2023/03/22 00:54:20;;;;;;;8.80;3.50;;;7.90;84.40;;;;;;5006263;28;20041;-79
2023/03/22 00:56:46;;;;;;;14.90;4.38;;;7.80;84.40;;;;;;5009804;28;20450;-80
2023/03/22 00:59:12;;;;;;;10.18;3.85;;;7.80;84.40;;;;;;5007750;28;20496;-80
2023/03/22 01:01:38;;;;;;;15.40;4.00;;;7.80;84.50;;;;;;5012470;28;20099;-79
2023/03/22 01:04:04;;;;;;;11.88;3.28;;;7.80;84.40;;;;;;5005795;28;20034;-79
2023/03/22 01:06:30;;;;;;;6.25;4.13;;;7.80;84.50;;;;;;5005477;28;20033;-78
2023/03/22 01:08:56;;;;;;;15.15;4.20;;;7.80;84.60;;;;;;5026130;28;20037;-78
2023/03/22 01:11:22;;;;;;;6.78;3.15;;;7.80;84.50;;;;;;5011497;28;20670;-79
2023/03/22 01:13:47;;;;;;;5.63;3.28;;;7.80;84.40;;;;;;5027933;28;20037;-78
2023/03/22 01:16:13;;;;;;;11.50;5.07;;;7.70;84.50;;;;;;5026005;28;20076;-79
2023/03/22 01:18:39;;;;;;;6.22;3.45;;;7.70;84.50;;;;;;5028287;28;20032;-77
2023/03/22 01:21:05;;;;;;;15.68;4.93;;;7.70;84.40;;;;;;5032919;28;20492;-78
2023/03/22 01:23:30;;;;;;;14.32;5.07;;;7.70;84.50;;;;;;5034128;28;20044;-79
2023/03/22 01:25:56;;;;;;;5.03;3.70;;;7.70;84.40;;;;;;5017041;28;20030;-77
2023/03/22 01:28:21;;;;;;;10.57;4.05;;;7.70;84.40;;;;;;5026087;28;20036;-80
2023/03/22 01:30:47;;;;;;;5.15;4.05;;;7.60;84.40;;;;;;5027120;28;20734;-78
2023/03/22 01:33:13;;;;;;;4.70;3.22;;;7.60;84.50;;;;;;5026820;28;20053;-79
2023/03/22 01:35:38;;;;;;;4.80;3.53;;;7.60;84.60;;;;;;5023866;28;20527;-78
2023/03/22 01:38:04;;;;;;;4.97;3.58;;;7.60;84.60;;;;;;5026938;28;20045;-78
2023/03/22 01:40:30;;;;;;;6.90;4.10;;;7.60;84.70;;;;;;5013944;28;20039;-76
2023/03/22 01:42:55;;;;;;;5.78;4.03;;;7.60;84.80;;;;;;5024240;28;20722;-77
2023/03/22 01:45:33;;;;;;;7.78;4.35;;;7.60;84.80;;;;;;5023754;28;20033;-79
2023/03/22 01:48:06;;;;;;;5.80;4.43;;;7.60;84.90;;;;;;5028978;28;20131;-79
2023/03/22 01:50:31;;;;;;;5.32;3.60;;;7.60;84.80;;;;;;5028365;28;20771;-79
2023/03/22 01:52:57;;;;;;;8.15;5.22;;;7.60;84.70;;;;;;5026675;28;20036;-78
2023/03/22 01:55:23;;;;;;;5.00;3.83;;;7.60;84.70;;;;;;5030473;28;20037;-78
2023/03/22 01:57:48;;;;;;;6.43;4.57;;;7.60;84.80;;;;;;5009484;28;20037;-78
2023/03/22 02:00:15;;;;;;;4.72;3.53;;;7.60;84.80;;;;;;5016671;28;20782;-79
2023/03/22 02:02:42;;;;;;;5.40;3.70;;;7.60;84.80;;;;;;4994092;28;20041;-79
2023/03/22 02:05:08;;;;;;;4.18;3.63;;;7.60;84.80;;;;;;5009646;28;20094;-79
2023/03/22 02:07:34;;;;;;;6.65;3.53;;;7.50;84.80;;;;;;5024922;28;20044;-77
2023/03/22 02:09:59;;;;;;;5.00;3.35;;;7.50;84.80;;;;;;5026670;28;20037;-78
2023/03/22 02:12:38;;;;;;;4.03;3.35;;;7.50;84.80;;;;;;5029481;28;20045;-79
2023/03/22 02:15:20;;;;;;;4.40;3.50;;;7.50;84.90;;;;;;5026747;28;20111;-80
2023/03/22 02:17:58;;;;;;;4.65;3.15;;;7.50;85.10;;;;;;5010273;28;20037;-78
2023/03/22 02:20:45;;;;;;;4.03;3.25;;;7.50;85.00;;;;;;5011738;28;20411;-78
2023/03/22 02:23:20;;;;;;;5.13;3.53;;;7.50;85.10;;;;;;5029020;28;20041;-79
2023/03/22 02:26:10;;;;;;;5.30;3.25;;;7.50;85.00;;;;;;5020873;28;20029;-79
2023/03/22 02:29:00;;;;;;;5.00;3.95;;;7.50;85.00;;;;;;5021848;28;20041;-77
2023/03/22 02:31:56;;;;;;;5.18;3.97;;;7.50;85.00;;;;;;5027377;28;20037;-78
2023/03/22 02:34:33;;;;;;;9.40;5.70;;;7.50;85.10;;;;;;5023320;28;20044;-78
2023/03/22 02:37:06;;;;;;;7.80;5.43;;;7.50;85.00;;;;;;5025814;28;20037;-79
2023/03/22 02:39:46;;;;;;;8.70;4.13;;;7.50;85.10;;;;;;5028836;28;20678;-78
2023/03/22 02:42:37;;;;;;;10.33;5.83;;;7.50;85.20;;;;;;5008853;28;20034;-78
2023/03/22 02:45:22;;;;;;;10.88;5.90;;;7.50;85.40;;;;;;5024532;28;20035;-79
2023/03/22 02:48:44;;;;;;;17.88;7.00;;;7.50;85.30;;;;;;5011115;28;20052;-79
2023/03/22 02:51:17;;;;;;;5.45;4.10;;;7.50;85.50;;;;;;4947163;28;20038;-78
2023/03/22 02:53:55;;;;;;;5.95;4.40;;;7.50;85.20;;;;;;4941319;28;20115;-79
2023/03/22 02:56:24;;;;;;;6.95;4.57;;;7.50;85.20;;;;;;4939855;28;20110;-79
2023/03/22 02:58:52;;;;;;;7.25;4.72;;;7.40;85.10;;;;;;4952870;28;20027;-79
2023/03/22 03:01:58;;;;;;;10.98;4.95;;;7.40;85.20;;;;;;4952525;28;20643;-77
2023/03/22 03:04:26;;;;;;;14.45;5.07;;;7.40;85.40;;;;;;4954231;28;20130;-78
2023/03/22 03:06:52;;;;;;;13.73;5.32;;;7.40;85.20;;;;;;4951621;28;20026;-78
2023/03/22 03:09:18;;;;;;;9.68;5.13;;;7.40;85.20;;;;;;4938283;28;20038;-77
2023/03/22 03:11:48;;;;;;;7.72;5.25;;;7.40;85.30;;;;;;4954624;28;20039;-79
2023/03/22 03:14:27;;;;;;;14.45;5.75;;;7.40;85.40;;;;;;4951856;28;20857;-79
2023/03/22 03:17:19;;;;;;;16.77;5.75;;;7.40;85.60;;;;;;4950492;28;20039;-78
2023/03/22 03:19:50;;;;;;;;;;;7.40;85.70;;;;;;4938159;28;20414;-78
2023/03/22 03:22:40;;;;;;;9.65;4.68;;;7.40;85.30;;;;;;5009725;28;19924;-78
2023/03/22 03:25:13;;;;;;;8.30;5.50;;;7.40;85.50;;;;;;5015625;28;20037;-77
2023/03/22 03:27:43;;;;;;;9.55;5.75;;;7.30;85.30;;;;;;5015936;28;20045;-78
2023/03/22 03:30:13;;;;;;;9.85;5.85;;;7.30;85.40;;;;;;5006843;28;20041;-77
2023/03/22 03:32:44;;;;;;;7.03;4.97;;;7.30;85.60;;;;;;4998226;28;20051;-78
2023/03/22 03:35:21;;;;;;;7.75;4.20;;;7.30;85.60;;;;;;5013583;28;20041;-78
2023/03/22 03:37:56;;;;;;;11.02;5.43;;;7.30;85.60;;;;;;5025237;28;20111;-81
2023/03/22 03:40:30;;;;;;;12.52;4.95;;;7.30;85.60;;;;;;4997875;28;20131;-78
2023/03/22 03:42:55;;;;;;;8.07;5.50;;;7.30;85.70;;;;;;5028602;28;20143;-77
2023/03/22 03:45:21;;;;;;;6.18;4.63;;;7.30;85.70;;;;;;5005604;28;20036;-78
2023/03/22 03:47:54;;;;;;;6.88;5.00;;;7.30;85.70;;;;;;4998321;28;20045;-78
2023/03/22 03:50:19;;;;;;;8.98;5.55;;;7.20;85.70;;;;;;4998916;28;20041;-80
2023/03/22 03:52:45;;;;;;;7.70;4.40;;;7.20;85.80;;;;;;5017183;28;20071;-80
2023/03/22 03:55:10;;;;;;;6.63;4.60;;;7.20;85.80;;;;;;5029011;28;20463;-80
2023/03/22 03:57:36;;;;;;;9.02;5.43;;;7.20;85.90;;;;;;4984558;28;20168;-79
2023/03/22 04:00:03;;;;;;;6.05;4.93;;;7.20;85.90;;;;;;4998752;28;20029;-80
2023/03/22 04:02:28;;;;;;;6.80;5.05;;;7.20;86.00;;;;;;4992194;28;20038;-80
2023/03/22 04:04:54;;;;;;;6.15;4.35;;;7.20;86.00;;;;;;5021472;28;20524;-81
2023/03/22 04:07:19;;;;;;;6.47;4.53;;;7.30;86.00;;;;;;5008207;28;20037;-79
2023/03/22 04:09:45;;;;;;;6.60;5.18;;;7.20;86.00;;;;;;5013775;28;20033;-77
2023/03/22 04:12:10;;;;;;;7.78;5.85;;;7.30;86.10;;;;;;4977087;28;20521;-77
2023/03/22 04:14:36;;;;;;;7.13;5.05;;;7.30;86.20;;;;;;4983311;28;20037;-78
2023/03/22 04:17:01;;;;;;;8.77;6.03;;;7.30;86.20;;;;;;5006773;28;20037;-77
2023/03/22 04:19:27;;;;;;;9.32;5.82;;;7.30;86.20;;;;;;4991236;28;20535;-76
2023/03/22 04:21:52;;;;;;;7.65;5.20;;;7.20;86.10;;;;;;4977796;28;20026;-79
2023/03/22 04:24:20;;;;;;;8.15;5.55;;;7.20;86.20;;;;;;5014738;28;20108;-76
2023/03/22 04:26:45;;;;;;;7.50;5.15;;;7.20;86.30;;;;;;5031065;28;20053;-78
2023/03/22 04:29:11;;;;;;;12.07;6.40;;;7.20;86.30;;;;;;5010719;28;20123;-78
2023/03/22 04:31:37;;;;;;;13.63;7.72;;;7.20;86.30;;;;;;5012811;28;20028;-79
2023/03/22 04:34:04;;;;;;;9.98;6.18;;;7.20;86.40;;;;;;5044137;28;20035;-77
2023/03/22 04:36:35;;;;;;;7.00;5.88;;;7.20;86.40;;;;;;5028339;28;20045;-79
2023/03/22 04:39:01;;;;;;;15.95;6.10;;;7.20;86.40;;;;;;5021801;28;20044;-76
2023/03/22 04:41:27;;;;;;;10.40;7.05;;;7.20;86.40;;;;;;5015789;28;20181;-80
2023/03/22 04:43:53;;;;;;;8.20;5.18;;;7.20;86.40;;;;;;5026637;28;20697;-79
2023/03/22 04:46:20;;;;;;;8.63;5.93;;;7.10;86.40;;;;;;5026038;28;20518;-79
2023/03/22 04:48:46;;;;;;;8.05;6.43;;;7.10;86.40;;;;;;5014356;28;20048;-80
2023/03/22 04:51:11;;;;;;;7.57;5.60;;;7.10;86.40;;;;;;5031715;28;20160;-80
2023/03/22 04:53:40;;;;;;;9.10;5.05;;;7.10;86.50;;;;;;4997521;28;20111;-79
2023/03/22 04:56:07;;;;;;;9.85;5.82;;;7.10;86.50;;;;;;4993788;28;20575;-80
2023/03/22 04:58:33;;;;;;;14.85;7.68;;;7.10;86.50;;;;;;4978250;28;20033;-80
2023/03/22 05:00:59;;;;;;;21.98;7.68;;;7.00;86.40;;;;;;5007367;28;20041;-78
2023/03/22 05:03:24;;;;;;;10.88;6.45;;;7.00;86.40;;;;;;5006447;28;20037;-79
2023/03/22 05:05:51;;;;;;;9.80;5.80;;;7.00;86.40;;;;;;4990549;28;20049;-79
2023/03/22 05:08:17;;;;;;;13.20;5.60;;;7.00;86.40;;;;;;5003733;28;20037;-79
2023/03/22 05:10:42;;;;;;;12.52;5.72;;;7.00;86.50;;;;;;5018293;28;20721;-78
2023/03/22 05:13:08;;;;;;;9.60;5.93;;;6.90;86.50;;;;;;4994927;28;20131;-79
2023/03/22 05:15:33;;;;;;;7.88;5.78;;;6.90;86.50;;;;;;5009409;28;20045;-79
2023/03/22 05:17:59;;;;;;;8.45;6.07;;;6.90;86.50;;;;;;5028776;28;20125;-79
2023/03/22 05:20:25;;;;;;;7.28;5.38;;;6.90;86.60;;;;;;5005997;28;20758;-78
2023/03/22 05:22:55;;;;;;;15.38;6.57;;;6.90;86.70;;;;;;4995600;28;20141;-79
2023/03/22 05:25:21;;;;;;;7.47;5.33;;;6.90;86.70;;;;;;5015475;28;20036;-79
2023/03/22 05:27:49;;;;;;;7.82;4.90;;;6.80;86.60;;;;;;5013247;28;20029;-76
2023/03/22 05:30:15;;;;;;;28.95;11.73;;;6.90;86.80;;;;;;5011151;28;20040;-79
2023/03/22 05:32:42;;;;;;;16.13;7.05;;;6.80;86.70;;;;;;5005944;28;20041;-78
2023/03/22 05:35:08;;;;;;;42.42;10.13;;;6.80;86.70;;;;;;4982290;28;20047;-79
2023/03/22 05:37:34;;;;;;;25.80;6.97;;;6.80;86.80;;;;;;5015637;28;20045;-77
2023/03/22 05:39:59;;;;;;;32.92;9.00;;;6.80;86.80;;;;;;5015402;28;20044;-77
2023/03/22 05:42:25;;;;;;;57.45;8.75;;;6.80;86.80;;;;;;4994351;28;20129;-78
2023/03/22 05:44:51;;;;;;;31.05;12.27;;;6.80;86.80;;;;;;4993189;28;20124;-80
2023/03/22 05:47:16;;;;;;;33.58;8.02;;;6.80;86.90;;;;;;5008814;28;20042;-79
2023/03/22 05:49:42;;;;;;;15.45;8.20;;;6.80;87.00;;;;;;5014711;28;20041;-79
2023/03/22 05:52:07;;;;;;;20.92;10.23;;;6.80;87.00;;;;;;4992956;28;20046;-79
2023/03/22 05:54:33;;;;;;;25.23;10.35;;;6.80;87.10;;;;;;4989104;28;20053;-78
2023/03/22 05:56:59;;;;;;;12.32;7.07;;;6.70;87.10;;;;;;4993204;28;20029;-79
2023/03/22 05:59:24;;;;;;;18.33;8.25;;;6.80;87.10;;;;;;5008696;28;20099;-78
2023/03/22 06:01:50;;;;;;;20.23;8.27;;;6.80;87.20;;;;;;5004797;28;20471;-79
2023/03/22 06:04:17;;;;;;;15.95;8.20;;;6.80;87.10;;;;;;5005602;28;20037;-78
2023/03/22 06:06:43;;;;;;;15.38;7.43;;;6.80;87.20;;;;;;5029602;28;20591;-78
2023/03/22 06:09:08;;;;;;;12.77;6.80;;;6.80;87.20;;;;;;4973953;28;20044;-79
2023/03/22 06:11:34;;;;;;;14.15;6.75;;;6.80;87.30;;;;;;5002858;28;20026;-78
2023/03/22 06:14:00;;;;;;;9.85;6.20;;;6.80;87.30;;;;;;4989472;28;20140;-79
2023/03/22 06:16:26;;;;;;;8.73;5.95;;;6.70;87.30;;;;;;4990075;28;20038;-79
2023/03/22 06:18:51;;;;;;;10.43;6.28;;;6.80;87.40;;;;;;4974660;28;20034;-78
2023/03/22 06:21:17;;;;;;;10.48;6.10;;;6.80;87.50;;;;;;4993605;28;20106;-79
2023/03/22 06:23:42;;;;;;;7.63;5.50;;;6.80;87.50;;;;;;5004938;28;20036;-78
2023/03/22 06:26:10;;;;;;;7.50;5.70;;;6.80;87.50;;;;;;4997058;28;20184;-79
2023/03/22 06:28:36;;;;;;;5.82;4.82;;;6.90;87.60;;;;;;4993615;28;20809;-79
2023/03/22 06:31:08;;;;;;;7.70;4.97;;;6.90;87.70;;;;;;5008348;28;20034;-78
2023/03/22 06:33:34;;;;;;;6.38;4.53;;;6.90;87.70;;;;;;5016600;28;20074;-79
2023/03/22 06:36:00;;;;;;;5.80;4.60;;;7.00;87.70;;;;;;4994185;28;20041;-79
2023/03/22 06:38:27;;;;;;;5.72;5.13;;;7.00;87.70;;;;;;5006801;28;20037;-79
2023/03/22 06:40:52;;;;;;;4.72;3.78;;;7.00;87.70;;;;;;4991120;28;20036;-77
2023/03/22 06:43:18;;;;;;;6.50;4.00;;;7.10;87.80;;;;;;5013054;28;20109;-79
2023/03/22 06:45:45;;;;;;;8.57;5.93;;;7.10;87.80;;;;;;4983192;28;20687;-78
2023/03/22 06:48:11;;;;;;;4.95;4.30;;;7.10;87.70;;;;;;4983780;28;20217;-79
2023/03/22 06:50:37;;;;;;;6.38;4.60;;;7.20;87.80;;;;;;4988585;28;20675;-78
2023/03/22 06:53:04;;;;;;;4.78;4.00;;;7.20;87.80;;;;;;5004494;28;20041;-79
2023/03/22 06:55:33;;;;;;;5.07;4.38;;;7.20;87.70;;;;;;4999762;28;20059;-79
2023/03/22 06:58:00;;;;;;;6.97;5.10;;;7.30;87.80;;;;;;5000574;28;20045;-79
2023/03/22 07:00:26;;;;;;;8.55;5.03;;;7.30;87.70;;;;;;4997426;28;20119;-78
2023/03/22 07:02:51;;;;;;;9.63;8.45;;;7.40;87.80;;;;;;5016118;28;20041;-78
2023/03/22 07:05:17;;;;;;;6.40;4.95;;;7.40;87.80;;;;;;5028398;28;20121;-78
2023/03/22 07:07:42;;;;;;;6.10;5.13;;;7.50;87.90;;;;;;4988920;28;20696;-79
2023/03/22 07:10:08;;;;;;;8.80;5.72;;;7.60;87.90;;;;;;4994160;28;20546;-79
2023/03/22 07:12:34;;;;;;;8.70;6.53;;;7.60;87.90;;;;;;4991207;28;20039;-78
2023/03/22 07:14:59;;;;;;;7.03;5.45;;;7.70;88.00;;;;;;5015995;28;20041;-78
2023/03/22 07:17:25;;;;;;;10.05;7.32;;;7.80;88.10;;;;;;5030577;28;20195;-79
2023/03/22 07:19:50;;;;;;;8.00;6.15;;;7.80;88.00;;;;;;5006740;28;20086;-79
2023/03/22 07:22:16;;;;;;;13.75;11.15;;;7.90;88.00;;;;;;5025829;28;20037;-76
2023/03/22 07:24:41;;;;;;;10.82;8.32;;;8.00;88.00;;;;;;5013645;28;20459;-78
2023/03/22 07:27:07;;;;;;;10.90;7.65;;;8.10;88.10;;;;;;4994269;28;20409;-79
2023/03/22 07:29:33;;;;;;;13.20;8.43;;;8.20;88.10;;;;;;5032918;28;20044;-77
2023/03/22 07:31:58;;;;;;;8.98;6.07;;;8.30;88.10;;;;;;4997305;28;20034;-78
2023/03/22 07:34:24;;;;;;;9.80;6.90;;;8.50;88.20;;;;;;5015165;28;20071;-75
2023/03/22 07:36:50;;;;;;;12.40;7.57;;;8.60;88.20;;;;;;5020596;28;20041;-78
2023/03/22 07:39:15;;;;;;;6.88;5.70;;;8.70;88.10;;;;;;5011401;28;20044;-76
2023/03/22 07:41:41;;;;;;;8.93;6.28;;;8.90;88.20;;;;;;5013556;28;20076;-77
2023/03/22 07:44:06;;;;;;;9.93;7.30;;;9.00;88.00;;;;;;5004934;28;20515;-77
2023/03/22 07:46:32;;;;;;;10.82;7.18;;;9.20;88.10;;;;;;5013128;28;20036;-77
2023/03/22 07:48:57;;;;;;;10.25;7.28;;;9.30;88.10;;;;;;4991725;28;20037;-78
2023/03/22 07:51:23;;;;;;;19.38;10.18;;;9.50;88.00;;;;;;5011320;28;20038;-79
2023/03/22 07:53:49;;;;;;;13.75;7.93;;;9.60;87.90;;;;;;4984766;28;20056;-76
2023/03/22 07:56:14;;;;;;;17.70;10.25;;;9.80;87.80;;;;;;4993070;28;20038;-79
2023/03/22 07:58:40;;;;;;;11.73;5.70;;;10.00;87.60;;;;;;5013548;28;20516;-78
2023/03/22 08:01:07;;;;;;;8.73;5.07;;;10.20;87.60;;;;;;4992972;28;20488;-79
2023/03/22 08:03:34;;;;;;;8.60;5.05;;;10.40;87.40;;;;;;4990958;28;20103;-78
2023/03/22 08:06:05;;;;;;;6.47;4.57;;;10.50;87.10;;;;;;4988079;28;20064;-78
2023/03/22 08:08:31;;;;;;;5.10;3.67;;;10.70;87.00;;;;;;5008932;28;20030;-76
2023/03/22 08:10:56;;;;;;;6.30;3.78;;;10.90;86.60;;;;;;5007418;28;20084;-77
2023/03/22 08:13:22;;;;;;;4.85;3.40;;;11.00;86.30;;;;;;5002394;28;20120;-77
2023/03/22 08:15:47;;;;;;;7.57;3.67;;;11.20;86.00;;;;;;5014397;28;20040;-80
2023/03/22 08:18:13;;;;;;;4.15;3.20;;;11.40;85.80;;;;;;5004121;28;20072;-79
2023/03/22 08:20:39;;;;;;;3.72;2.90;;;11.60;85.60;;;;;;5010281;28;20093;-78
2023/03/22 08:23:06;;;;;;;7.78;3.15;;;11.70;85.20;;;;;;5007598;28;20045;-79
2023/03/22 08:25:32;;;;;;;7.72;3.10;;;11.90;85.00;;;;;;4995959;28;20104;-79
2023/03/22 08:27:58;;;;;;;6.15;3.95;;;12.10;84.70;;;;;;4998009;28;20037;-79
2023/03/22 08:30:23;;;;;;;3.53;2.75;;;12.20;84.40;;;;;;5009831;28;20742;-78
2023/03/22 08:32:49;;;;;;;3.58;2.40;;;12.40;84.00;;;;;;5010686;28;20069;-77
2023/03/22 08:35:15;;;;;;;3.90;2.78;;;12.60;83.60;;;;;;5007405;28;20037;-79
2023/03/22 08:37:40;;;;;;;2.92;2.50;;;12.70;83.20;;;;;;5024736;28;20060;-79
2023/03/22 08:40:08;;;;;;;4.57;2.63;;;12.90;82.70;;;;;;5030959;28;20033;-79
2023/03/22 08:42:34;;;;;;;3.50;2.20;;;13.00;82.30;;;;;;5016464;28;20122;-77
2023/03/22 08:44:59;;;;;;;4.25;2.25;;;13.20;82.00;;;;;;5008963;28;20124;-79
2023/03/22 08:47:25;;;;;;;2.97;2.05;;;13.30;81.70;;;;;;5018810;28;20039;-79
2023/03/22 08:49:50;;;;;;;3.28;2.17;;;13.50;81.40;;;;;;5005193;28;20096;-78
2023/03/22 08:52:16;;;;;;;3.25;2.33;;;13.60;81.00;;;;;;5011794;28;20049;-78
2023/03/22 08:54:41;;;;;;;3.05;2.35;;;13.80;80.60;;;;;;5017981;28;20466;-78
2023/03/22 08:57:08;;;;;;;2.92;1.85;;;13.90;80.20;;;;;;5013713;28;20786;-80
2023/03/22 08:59:34;;;;;;;5.40;2.05;;;14.00;79.80;;;;;;4997398;28;20033;-79
2023/03/22 09:01:59;;;;;;;4.07;1.90;;;14.10;79.40;;;;;;4979443;28;20412;-79
2023/03/22 09:04:26;;;;;;;5.55;1.92;;;14.10;79.00;;;;;;4980662;28;20041;-79
2023/03/22 09:06:51;;;;;;;7.05;1.95;;;14.20;78.70;;;;;;5010476;28;20033;-78
2023/03/22 09:09:17;;;;;;;2.67;1.58;;;14.30;78.60;;;;;;4992728;28;20029;-78
2023/03/22 09:11:42;;;;;;;2.00;1.30;;;14.30;78.40;;;;;;4995061;28;20061;-78
2023/03/22 09:14:08;;;;;;;2.58;1.73;;;14.40;78.20;;;;;;5026963;28;20125;-79
2023/03/22 09:16:34;;;;;;;4.65;1.55;;;14.50;78.00;;;;;;5031307;28;20033;-79
2023/03/22 09:19:00;;;;;;;3.20;1.60;;;14.50;77.60;;;;;;5014369;28;20029;-79
2023/03/22 09:21:26;;;;;;;1.73;1.25;;;14.60;77.30;;;;;;4982949;28;20083;-78
2023/03/22 09:23:51;;;;;;;2.67;1.40;;;14.70;77.20;;;;;;5014696;28;20921;-79
2023/03/22 09:26:17;;;;;;;3.25;1.25;;;14.80;77.00;;;;;;5029162;28;20108;-78
2023/03/22 09:28:44;;;;;;;3.28;1.52;;;14.90;76.80;;;;;;5001501;28;20035;-79
2023/03/22 09:31:09;;;;;;;4.60;1.42;;;15.00;76.40;;;;;;5002350;28;20466;-79
2023/03/22 09:33:36;;;;;;;1.27;0.90;;;15.10;75.80;;;;;;5035647;28;20028;-78
2023/03/22 09:36:01;;;;;;;3.53;1.60;;;15.10;75.70;;;;;;5015184;28;20033;-78
2023/03/22 09:38:27;;;;;;;2.90;1.08;;;15.20;75.60;;;;;;5015391;28;20700;-79
2023/03/22 09:40:59;;;;;;;3.33;1.13;;;15.30;75.50;;;;;;5018089;28;20032;-79
2023/03/22 09:43:26;;;;;;;3.28;0.90;;;15.40;75.00;;;;;;5033863;28;20060;-79
2023/03/22 09:45:52;;;;;;;6.88;0.90;;;15.60;74.70;;;;;;5025254;28;20033;-79
2023/03/22 09:48:20;;;;;;;1.27;0.80;;;15.70;74.20;;;;;;4989818;28;20040;-79
2023/03/22 09:50:50;;;;;;;1.10;0.73;;;15.90;73.90;;;;;;5013967;28;20063;-80
2023/03/22 09:53:16;;;;;;;2.00;0.75;;;16.00;73.60;;;;;;4982369;28;20037;-79
2023/03/22 09:55:46;;;;;;;3.80;1.00;;;16.10;73.10;;;;;;5007775;28;20052;-79
2023/03/22 09:58:20;;;;;;;2.10;1.10;;;16.20;72.50;;;;;;5017039;28;20241;-80
2023/03/22 10:00:49;;;;;;;3.78;1.13;;;16.20;72.30;;;;;;5013751;28;20474;-77
2023/03/22 10:03:44;;;;;;;2.75;1.02;;;16.20;72.00;;;;;;5002889;28;20045;-79
2023/03/22 10:06:12;;;;;;;1.10;0.80;;;16.30;72.10;;;;;;5024190;28;20037;-79
2023/03/22 10:09:02;;;;;;;1.20;1.02;;;16.40;71.80;;;;;;5036217;28;20045;-79
2023/03/22 10:11:33;;;;;;;1.20;1.10;;;16.50;71.20;;;;;;5028654;28;20033;-78
2023/03/22 10:14:20;;;;;;;2.47;1.10;;;16.50;71.10;;;;;;5034877;28;20051;-77
2023/03/22 10:16:46;;;;;;;1.15;0.82;;;16.50;70.70;;;;;;5012287;28;20673;-78
2023/03/22 10:19:18;;;;;;;2.47;0.75;;;16.60;71.40;;;;;;4999111;28;20611;-79
2023/03/22 10:21:44;;;;;;;1.75;1.02;;;16.60;70.30;;;;;;5000256;28;20041;-78
2023/03/22 10:24:37;;;;;;;2.10;1.13;;;16.60;71.10;;;;;;4995747;28;20040;-77
2023/03/22 10:27:02;;;;;;;1.83;0.90;;;16.60;69.00;;;;;;5000946;28;20033;-77
2023/03/22 10:29:35;;;;;;;2.13;1.20;;;16.60;69.70;;;;;;5015868;28;20044;-79
2023/03/22 10:32:12;;;;;;;3.58;0.98;;;16.70;69.20;;;;;;5017236;28;20067;-78
2023/03/22 10:34:38;;;;;;;1.08;0.40;;;16.70;68.80;;;;;;5023564;28;20128;-80
2023/03/22 10:37:03;;;;;;;4.50;1.15;;;16.80;69.10;;;;;;5031882;28;20132;-79
2023/03/22 10:39:30;;;;;;;1.55;0.77;;;16.90;69.20;;;;;;5020515;28;20031;-80
2023/03/22 10:41:56;;;;;;;1.83;0.60;;;17.10;68.50;;;;;;5033716;28;20063;-78
2023/03/22 10:44:22;;;;;;;0.98;0.70;;;17.20;67.80;;;;;;5019218;28;20033;-80
2023/03/22 10:46:48;;;;;;;0.98;0.43;;;17.40;67.60;;;;;;5054221;28;20040;-77
2023/03/22 10:49:28;;;;;;;1.38;0.65;;;17.60;67.20;;;;;;5036001;28;20531;-78
2023/03/22 10:51:58;;;;;;;1.13;0.70;;;17.80;66.60;;;;;;5015397;28;20029;-78
2023/03/22 10:54:24;;;;;;;2.00;0.80;;;18.00;66.40;;;;;;5034396;28;20085;-76
2023/03/22 10:56:49;;;;;;;1.58;0.70;;;18.10;65.60;;;;;;5018218;28;20045;-77
2023/03/22 10:59:54;;;;;;;1.00;0.70;;;18.30;65.20;;;;;;5036695;28;20682;-80
2023/03/22 11:02:26;;;;;;;1.00;0.60;;;18.40;62.80;;;;;;5012192;28;20113;-77
2023/03/22 11:04:56;;;;;;;2.17;0.80;;;18.50;63.60;;;;;;5001347;28;20064;-79
2023/03/22 11:07:41;;;;;;;1.23;0.40;;;18.50;63.40;;;;;;5028765;28;20045;-78
2023/03/22 11:10:07;;;;;;;2.15;0.38;;;18.60;62.80;;;;;;5024606;28;20091;-79
2023/03/22 11:12:35;;;;;;;1.52;0.77;;;18.60;62.90;;;;;;5032042;28;20070;-80
2023/03/22 11:15:01;;;;;;;1.05;0.38;;;18.60;62.50;;;;;;5029699;28;20029;-79
2023/03/22 11:17:27;;;;;;;1.42;0.57;;;18.70;62.50;;;;;;4998757;28;20091;-79
2023/03/22 11:20:11;;;;;;;1.77;0.38;;;18.80;62.40;;;;;;4995738;28;20082;-79
2023/03/22 11:22:41;;;;;;;1.17;0.40;;;18.90;62.00;;;;;;5008718;28;20049;-76
2023/03/22 11:25:14;;;;;;;2.28;0.35;;;19.10;61.70;;;;;;4996802;28;20176;-79
2023/03/22 11:27:55;;;;;;;1.70;0.60;;;19.10;60.50;;;;;;5017349;28;20033;-77
2023/03/22 11:30:25;;;;;;;1.23;0.30;;;19.10;60.40;;;;;;5030482;28;20041;-78
2023/03/22 11:33:12;;;;;;;1.27;0.47;;;19.10;60.60;;;;;;5034364;28;20044;-76
2023/03/22 11:35:38;;;;;;;0.47;0.40;;;19.10;59.80;;;;;;5029351;28;20397;-76
2023/03/22 11:38:04;;;;;;;1.08;0.47;;;19.10;60.10;;;;;;5010592;28;20056;-78
2023/03/22 11:40:30;;;;;;;2.42;0.60;;;19.10;59.90;;;;;;5017258;28;20029;-81
2023/03/22 11:43:09;;;;;;;0.65;0.30;;;19.10;59.70;;;;;;5016761;28;20057;-78
2023/03/22 11:45:36;;;;;;;0.75;0.40;;;19.20;59.30;;;;;;5033819;28;20055;-78
2023/03/22 11:48:04;;;;;;;1.27;0.50;;;19.20;59.40;;;;;;5004661;28;20063;-77
2023/03/22 11:50:31;;;;;;;1.20;0.35;;;19.20;59.20;;;;;;5011885;28;20048;-78
2023/03/22 11:52:56;;;;;;;2.42;0.35;;;19.30;59.10;;;;;;5015344;28;20048;-77
2023/03/22 11:55:22;;;;;;;0.43;0.30;;;19.40;58.80;;;;;;5019512;28;20041;-79
2023/03/22 11:57:49;;;;;;;0.95;0.40;;;19.40;58.40;;;;;;5020119;28;20069;-80
2023/03/22 12:00:20;;;;;;;0.98;0.50;;;19.50;58.40;;;;;;5020492;28;20037;-80
2023/03/22 12:03:00;;;;;;;1.75;0.40;;;19.40;57.90;;;;;;5038521;28;20032;-80
2023/03/22 12:05:36;;;;;;;2.90;0.65;;;19.40;58.30;;;;;;5036118;28;20033;-79
2023/03/22 12:08:08;;;;;;;3.35;0.73;;;19.40;57.40;;;;;;5005495;28;20083;-79
2023/03/22 12:10:41;;;;;;;3.20;1.08;;;19.40;57.90;;;;;;5032341;28;20044;-79
2023/03/22 12:13:39;;;;;;;2.70;0.77;;;19.40;57.40;;;;;;5006160;28;20041;-79
2023/03/22 12:16:05;;;;;;;2.45;0.60;;;19.40;57.40;;;;;;5002783;28;20034;-80
2023/03/22 12:18:56;;;;;;;2.13;0.70;;;19.50;57.70;;;;;;5029334;28;20078;-77
2023/03/22 12:21:21;;;;;;;0.95;0.40;;;19.50;56.30;;;;;;5002922;28;20076;-80
2023/03/22 12:23:47;;;;;;;0.88;0.40;;;19.50;57.10;;;;;;5011282;28;20041;-78
2023/03/22 12:26:25;;;;;;;1.95;0.50;;;19.50;57.00;;;;;;5029681;28;20164;-80
2023/03/22 12:29:08;;;;;;;0.95;0.52;;;19.50;56.10;;;;;;5032025;28;20548;-79
2023/03/22 12:31:39;;;;;;;1.33;0.65;;;19.50;56.70;;;;;;5035095;28;20032;-80
2023/03/22 12:34:12;;;;;;;1.23;0.50;;;19.50;56.30;;;;;;5019468;28;20590;-80
2023/03/22 12:36:51;;;;;;;1.10;0.50;;;19.50;56.20;;;;;;5020771;28;20041;-79
2023/03/22 12:39:29;;;;;;;0.60;0.32;;;19.50;56.10;;;;;;5031398;28;20631;-80
2023/03/22 12:41:56;;;;;;;0.73;0.40;;;19.60;55.70;;;;;;5016342;28;20038;-77
2023/03/22 12:44:42;;;;;;;0.63;0.50;;;19.60;56.20;;;;;;5020557;28;20728;-80
2023/03/22 12:47:35;;;;;;;0.70;0.40;;;19.70;54.90;;;;;;5007918;28;20041;-80
2023/03/22 12:50:11;;;;;;;0.55;0.40;;;19.70;54.90;;;;;;5005865;28;20037;-80
2023/03/22 12:52:47;;;;;;;2.50;0.30;;;19.70;55.10;;;;;;5012085;28;20708;-77
2023/03/22 12:55:30;;;;;;;0.40;0.40;;;19.80;55.20;;;;;;5008366;28;20045;-78
2023/03/22 12:57:56;;;;;;;0.60;0.30;;;19.90;55.10;;;;;;5015357;28;20599;-79
2023/03/22 13:00:32;;;;;;;2.42;0.45;;;20.00;55.50;;;;;;4979837;28;20164;-79